Time;durP1;ratioP1;P1;durP2;ratioP2;P2;SDS_P1;SDS_P2;PMS_P1;PMS_P2;Temp;Humidity;BMP_temperature;BMP_pressure;BME280_temperature;BME280_humidity;BME280_pressure;Samples;Min_cycle;Max_cycle;Signal;HPM_P1;HPM_P2
2022/01/02 00:01:42;;;;;;;;;31.75;26.75;;;;;;;;5060617;28;45626;-65
2022/01/02 00:04:13;;;;;;;;;25.25;24.50;;;;;;;;5026711;28;46322;-67
2022/01/02 00:06:42;;;;;;;;;23.25;20.50;;;;;;;;5029250;28;45417;-66
2022/01/02 00:09:07;;;;;;;;;25.00;23.25;;;;;;;;5026867;28;47096;-68
2022/01/02 00:11:33;;;;;;;;;22.50;22.50;;;;;;;;5024839;28;45456;-68
2022/01/02 00:14:07;;;;;;;;;23.75;23.25;;;;;;;;5032566;28;45615;-67
2022/01/02 00:16:33;;;;;;;;;21.75;20.75;;;;;;;;5028977;28;45556;-67
2022/01/02 00:19:06;;;;;;;;;20.75;20.75;;;;;;;;5035813;28;45457;-69
2022/01/02 00:21:33;;;;;;;;;21.75;20.50;;;;;;;;5030658;28;45535;-69
2022/01/02 00:24:05;;;;;;;;;28.25;24.00;;;;;;;;5043354;28;45827;-65
2022/01/02 00:26:43;;;;;;;;;22.25;21.00;;;;;;;;5051513;28;45548;-66
2022/01/02 00:29:10;;;;;;;;;25.00;22.50;;;;;;;;5043895;28;45466;-69
2022/01/02 00:31:35;;;;;;;;;26.25;25.50;;;;;;;;5034949;28;45452;-66
2022/01/02 00:34:01;;;;;;;;;29.50;25.25;;;;;;;;5034928;28;47550;-67
2022/01/02 00:36:27;;;;;;;;;28.75;25.50;;;;;;;;5052583;28;45437;-66
2022/01/02 00:38:52;;;;;;;;;29.50;25.00;;;;;;;;5052555;28;45397;-67
2022/01/02 00:41:22;;;;;;;;;25.50;23.25;;;;;;;;5035315;28;45574;-67
2022/01/02 00:43:52;;;;;;;;;18.25;16.25;;;;;;;;5053343;28;47813;-67
2022/01/02 00:46:18;;;;;;;;;26.75;24.00;;;;;;;;5035344;28;46557;-67
2022/01/02 00:48:44;;;;;;;;;21.50;20.75;;;;;;;;5047699;28;45409;-68
2022/01/02 00:51:14;;;;;;;;;23.75;22.00;;;;;;;;5053291;28;45512;-66
2022/01/02 00:53:42;;;;;;;;;24.50;22.25;;;;;;;;5035762;28;47684;-65
2022/01/02 00:56:10;;;;;;;;;24.75;22.25;;;;;;;;5035648;28;45649;-66
2022/01/02 00:58:53;;;;;;;;;28.25;25.25;;;;;;;;5035770;28;45359;-68
2022/01/02 01:01:22;;;;;;;;;27.50;24.50;;;;;;;;5050154;28;45459;-67
2022/01/02 01:03:50;;;;;;;;;17.00;16.00;;;;;;;;5043704;28;46346;-67
2022/01/02 01:06:15;;;;;;;;;21.25;18.00;;;;;;;;5050639;28;45543;-68
2022/01/02 01:08:42;;;;;;;;;20.50;18.75;;;;;;;;5053463;28;45492;-68
2022/01/02 01:11:09;;;;;;;;;20.50;18.50;;;;;;;;5053028;28;45446;-66
2022/01/02 01:13:34;;;;;;;;;23.75;23.75;;;;;;;;5052904;28;46129;-65
2022/01/02 01:16:01;;;;;;;;;20.75;20.75;;;;;;;;5053779;28;45456;-69
2022/01/02 01:18:26;;;;;;;;;25.00;22.00;;;;;;;;5053722;28;45341;-64
2022/01/02 01:20:53;;;;;;;;;18.25;15.00;;;;;;;;5048377;28;45471;-67
2022/01/02 01:23:18;;;;;;;;;19.75;18.00;;;;;;;;5047258;28;46193;-66
2022/01/02 01:25:46;;;;;;;;;21.50;17.50;;;;;;;;5034930;28;45532;-67
2022/01/02 01:28:12;;;;;;;;;11.50;10.75;;;;;;;;5053918;28;45876;-67
2022/01/02 01:30:37;;;;;;;;;19.00;19.00;;;;;;;;5044839;28;45420;-65
2022/01/02 01:33:02;;;;;;;;;17.75;17.75;;;;;;;;5047194;28;45520;-67
2022/01/02 01:35:27;;;;;;;;;16.50;16.50;;;;;;;;5027509;28;45404;-66
2022/01/02 01:37:53;;;;;;;;;20.25;18.75;;;;;;;;5053477;28;45718;-67
2022/01/02 01:40:19;;;;;;;;;23.75;20.00;;;;;;;;5053546;28;45334;-67
2022/01/02 01:42:55;;;;;;;;;20.75;19.00;;;;;;;;5046224;28;48509;-68
2022/01/02 01:47:51;;;;;;;;;20.00;17.25;;;;;;;;5053106;28;45776;-67
2022/01/02 01:50:17;;;;;;;;;18.00;17.00;;;;;;;;5052868;28;45611;-67
2022/01/02 01:52:43;;;;;;;;;16.75;13.75;;;;;;;;5052532;28;46032;-67
2022/01/02 01:55:08;;;;;;;;;17.00;16.75;;;;;;;;5047488;28;45454;-67
2022/01/02 01:57:34;;;;;;;;;20.75;19.50;;;;;;;;5034703;28;45379;-67
2022/01/02 01:59:59;;;;;;;;;15.50;15.50;;;;;;;;5049547;28;47810;-66
2022/01/02 02:02:25;;;;;;;;;18.25;16.75;;;;;;;;5034071;28;48066;-66
2022/01/02 02:04:50;;;;;;;;;16.50;16.00;;;;;;;;5052599;28;45374;-67
2022/01/02 02:07:16;;;;;;;;;24.00;17.00;;;;;;;;5035298;28;45512;-68
2022/01/02 02:12:16;;;;;;;;;16.00;16.00;;;;;;;;5051075;28;46585;-67
2022/01/02 02:14:41;;;;;;;;;18.00;18.00;;;;;;;;5050118;28;45218;-67
2022/01/02 02:17:06;;;;;;;;;17.25;16.25;;;;;;;;5034957;28;47607;-68
2022/01/02 02:19:31;;;;;;;;;23.00;20.50;;;;;;;;5045144;28;45438;-66
2022/01/02 02:21:57;;;;;;;;;15.00;14.75;;;;;;;;5037452;28;48420;-67
2022/01/02 02:24:22;;;;;;;;;21.00;16.75;;;;;;;;5036295;28;46279;-65
2022/01/02 02:26:48;;;;;;;;;16.25;16.25;;;;;;;;5037743;28;45580;-67
2022/01/02 02:29:13;;;;;;;;;18.50;17.25;;;;;;;;5055300;28;45406;-66
2022/01/02 02:31:38;;;;;;;;;22.00;17.25;;;;;;;;5035307;28;48382;-66
2022/01/02 02:34:03;;;;;;;;;15.75;15.00;;;;;;;;5049698;28;45707;-68
2022/01/02 02:36:29;;;;;;;;;17.50;15.75;;;;;;;;5055691;28;45506;-66
2022/01/02 02:38:54;;;;;;;;;15.50;14.25;;;;;;;;5037543;28;45432;-64
2022/01/02 02:41:19;;;;;;;;;18.25;16.75;;;;;;;;5036694;28;47820;-65
2022/01/02 02:43:55;;;;;;;;;17.50;16.75;;;;;;;;5063870;28;46084;-66
2022/01/02 02:49:05;;;;;;;;;15.25;14.25;;;;;;;;5049452;28;45288;-66
2022/01/02 02:54:05;;;;;;;;;17.50;14.75;;;;;;;;5054632;28;45556;-67
2022/01/02 02:56:42;;;;;;;;;16.25;15.00;;;;;;;;5035824;28;45484;-65
2022/01/02 02:59:09;;;;;;;;;16.50;14.00;;;;;;;;5055670;28;45558;-64
2022/01/02 03:01:34;;;;;;;;;14.00;13.75;;;;;;;;5036979;28;47336;-64
2022/01/02 03:03:59;;;;;;;;;15.75;14.00;;;;;;;;5055677;28;45441;-64
2022/01/02 03:06:24;;;;;;;;;14.75;14.75;;;;;;;;5036138;28;45468;-63
2022/01/02 03:08:50;;;;;;;;;15.00;13.50;;;;;;;;5055221;28;45466;-63
2022/01/02 03:11:19;;;;;;;;;18.75;14.50;;;;;;;;5055196;28;46516;-63
2022/01/02 03:13:45;;;;;;;;;18.00;12.25;;;;;;;;5055555;28;45329;-63
2022/01/02 03:16:10;;;;;;;;;11.00;9.50;;;;;;;;5056404;28;45433;-65
2022/01/02 03:18:35;;;;;;;;;11.75;11.75;;;;;;;;5056042;28;45429;-65
2022/01/02 03:21:01;;;;;;;;;14.00;14.00;;;;;;;;5054986;28;45857;-65
2022/01/02 03:23:26;;;;;;;;;11.50;11.00;;;;;;;;5054874;28;45555;-65
2022/01/02 03:25:51;;;;;;;;;14.75;13.75;;;;;;;;5055127;28;45461;-65
2022/01/02 03:28:16;;;;;;;;;13.25;13.25;;;;;;;;5037154;28;45386;-69
2022/01/02 03:30:42;;;;;;;;;13.75;13.00;;;;;;;;5054776;28;45679;-66
2022/01/02 03:33:07;;;;;;;;;14.25;13.00;;;;;;;;5054655;28;45492;-66
2022/01/02 03:35:33;;;;;;;;;15.50;14.50;;;;;;;;5054998;28;45546;-66
2022/01/02 03:37:58;;;;;;;;;14.50;14.00;;;;;;;;5055008;28;45563;-65
2022/01/02 03:40:23;;;;;;;;;14.00;13.00;;;;;;;;5055082;28;46379;-67
2022/01/02 03:42:48;;;;;;;;;13.00;13.00;;;;;;;;5054950;28;45361;-67
2022/01/02 03:45:13;;;;;;;;;16.50;14.25;;;;;;;;5054645;28;45496;-66
2022/01/02 03:47:39;;;;;;;;;12.50;11.00;;;;;;;;5036646;28;45469;-65
2022/01/02 03:50:05;;;;;;;;;13.00;11.50;;;;;;;;5036316;28;47538;-67
2022/01/02 03:52:30;;;;;;;;;14.00;12.50;;;;;;;;5036498;28;45454;-67
2022/01/02 03:54:56;;;;;;;;;11.25;10.75;;;;;;;;5055118;28;45578;-66
2022/01/02 03:57:21;;;;;;;;;13.50;13.00;;;;;;;;5054259;28;45547;-65
2022/01/02 03:59:46;;;;;;;;;14.50;13.75;;;;;;;;5054470;28;45544;-66
2022/01/02 04:02:12;;;;;;;;;14.50;11.25;;;;;;;;5036598;28;45620;-67
2022/01/02 04:04:37;;;;;;;;;14.50;14.25;;;;;;;;5054723;28;45385;-66
2022/01/02 04:07:03;;;;;;;;;13.00;13.00;;;;;;;;5055250;28;45421;-67
2022/01/02 04:09:28;;;;;;;;;9.25;8.00;;;;;;;;5036161;28;47464;-66
2022/01/02 04:11:53;;;;;;;;;11.50;9.00;;;;;;;;5054126;28;45461;-65
2022/01/02 04:14:18;;;;;;;;;10.25;10.25;;;;;;;;5054603;28;45491;-67
2022/01/02 04:16:44;;;;;;;;;13.25;13.25;;;;;;;;5054631;28;47809;-67
2022/01/02 04:19:09;;;;;;;;;14.25;14.25;;;;;;;;5054902;28;46576;-66
2022/01/02 04:21:34;;;;;;;;;12.50;10.50;;;;;;;;5053965;28;45334;-66
2022/01/02 04:23:59;;;;;;;;;15.75;12.50;;;;;;;;5054214;28;45452;-66
2022/01/02 04:26:24;;;;;;;;;14.50;13.50;;;;;;;;5036090;28;45491;-66
2022/01/02 04:28:50;;;;;;;;;14.25;14.00;;;;;;;;5034774;28;47373;-66
2022/01/02 04:31:15;;;;;;;;;14.50;14.50;;;;;;;;5054854;28;45323;-67
2022/01/02 04:33:41;;;;;;;;;12.75;12.50;;;;;;;;5053892;28;45970;-69
2022/01/02 04:36:06;;;;;;;;;14.25;11.75;;;;;;;;5035703;28;45503;-66
2022/01/02 04:38:31;;;;;;;;;13.00;11.25;;;;;;;;5035766;28;47911;-67
2022/01/02 04:40:57;;;;;;;;;17.75;15.00;;;;;;;;5053067;28;45853;-64
2022/01/02 04:43:22;;;;;;;;;14.25;14.00;;;;;;;;5036312;28;45433;-66
2022/01/02 04:45:47;;;;;;;;;13.50;11.50;;;;;;;;5036159;28;45366;-68
2022/01/02 04:48:13;;;;;;;;;15.50;13.00;;;;;;;;5053847;28;46721;-67
2022/01/02 04:50:38;;;;;;;;;12.50;12.50;;;;;;;;5069294;28;45457;-68
2022/01/02 04:53:04;;;;;;;;;15.25;14.00;;;;;;;;5035958;28;45603;-67
2022/01/02 04:55:29;;;;;;;;;13.00;12.25;;;;;;;;5054237;28;45414;-67
2022/01/02 04:57:54;;;;;;;;;13.25;13.25;;;;;;;;5036255;28;48433;-67
2022/01/02 05:00:19;;;;;;;;;9.00;9.00;;;;;;;;5035400;28;46486;-67
2022/01/02 05:02:45;;;;;;;;;17.00;12.00;;;;;;;;5053923;28;45478;-67
2022/01/02 05:05:10;;;;;;;;;16.75;14.75;;;;;;;;5053796;28;45303;-67
2022/01/02 05:07:35;;;;;;;;;16.00;12.50;;;;;;;;5053371;28;46416;-67
2022/01/02 05:10:00;;;;;;;;;15.25;13.50;;;;;;;;5053968;28;45462;-67
2022/01/02 05:12:26;;;;;;;;;13.00;13.00;;;;;;;;5053835;28;45449;-67
2022/01/02 05:14:51;;;;;;;;;11.50;10.25;;;;;;;;5035465;28;45599;-66
2022/01/02 05:17:16;;;;;;;;;11.00;10.25;;;;;;;;5053546;28;45520;-67
2022/01/02 05:19:41;;;;;;;;;16.00;13.00;;;;;;;;5035262;28;46038;-66
2022/01/02 05:22:07;;;;;;;;;9.00;9.00;;;;;;;;5053815;28;45504;-67
2022/01/02 05:24:32;;;;;;;;;14.25;11.50;;;;;;;;5052846;28;45527;-69
2022/01/02 05:26:57;;;;;;;;;13.00;13.00;;;;;;;;5068529;28;47572;-69
2022/01/02 05:29:23;;;;;;;;;11.00;11.00;;;;;;;;5053276;28;45395;-67
2022/01/02 05:31:48;;;;;;;;;11.50;10.25;;;;;;;;5035414;28;45601;-67
2022/01/02 05:34:14;;;;;;;;;11.25;11.25;;;;;;;;5049338;28;45508;-68
2022/01/02 05:36:39;;;;;;;;;13.50;11.00;;;;;;;;5053118;28;45465;-67
2022/01/02 05:39:04;;;;;;;;;11.50;9.00;;;;;;;;5035247;28;46148;-67
2022/01/02 05:41:32;;;;;;;;;12.50;12.25;;;;;;;;5053585;28;45556;-67
2022/01/02 05:43:57;;;;;;;;;12.25;10.50;;;;;;;;5053380;28;45559;-68
2022/01/02 05:46:22;;;;;;;;;14.25;14.25;;;;;;;;5053282;28;46310;-68
2022/01/02 05:48:48;;;;;;;;;11.75;11.75;;;;;;;;5053455;28;45358;-66
2022/01/02 05:51:13;;;;;;;;;10.75;10.75;;;;;;;;5054102;28;45461;-67
2022/01/02 05:53:38;;;;;;;;;11.50;11.50;;;;;;;;5038553;28;47916;-66
2022/01/02 05:56:04;;;;;;;;;9.75;9.75;;;;;;;;5056737;28;45609;-66
2022/01/02 05:58:29;;;;;;;;;9.00;8.00;;;;;;;;5056976;28;45386;-68
2022/01/02 06:00:54;;;;;;;;;9.75;9.75;;;;;;;;5057032;28;45456;-66
2022/01/02 06:03:20;;;;;;;;;9.00;9.00;;;;;;;;5038363;28;45582;-67
2022/01/02 06:05:45;;;;;;;;;7.75;7.75;;;;;;;;5056209;28;46314;-66
2022/01/02 06:08:11;;;;;;;;;10.00;9.00;;;;;;;;5038237;28;45346;-66
2022/01/02 06:10:36;;;;;;;;;9.50;8.50;;;;;;;;5038435;28;45478;-67
2022/01/02 06:13:01;;;;;;;;;12.50;8.75;;;;;;;;5038724;28;45541;-68
2022/01/02 06:15:27;;;;;;;;;8.75;8.25;;;;;;;;5037997;28;47569;-66
2022/01/02 06:17:52;;;;;;;;;8.75;7.00;;;;;;;;5055744;28;46035;-68
2022/01/02 06:20:17;;;;;;;;;8.75;8.75;;;;;;;;5056112;28;45361;-65
2022/01/02 06:22:42;;;;;;;;;7.75;7.75;;;;;;;;5056120;28;45588;-66
2022/01/02 06:25:08;;;;;;;;;7.50;6.00;;;;;;;;5056711;28;46150;-66
2022/01/02 06:27:34;;;;;;;;;9.50;9.50;;;;;;;;5055874;28;45585;-66
2022/01/02 06:30:01;;;;;;;;;9.50;9.50;;;;;;;;5056096;28;45516;-67
2022/01/02 06:32:26;;;;;;;;;8.00;8.00;;;;;;;;5037952;28;45470;-68
2022/01/02 06:34:51;;;;;;;;;10.25;9.25;;;;;;;;5055857;28;46233;-66
2022/01/02 06:37:17;;;;;;;;;8.00;8.00;;;;;;;;5038530;28;45364;-66
2022/01/02 06:39:42;;;;;;;;;8.75;7.75;;;;;;;;5037793;28;45525;-67
2022/01/02 06:42:07;;;;;;;;;8.00;8.00;;;;;;;;5037674;28;45511;-68
2022/01/02 06:44:33;;;;;;;;;8.75;8.75;;;;;;;;5037388;28;47647;-65
2022/01/02 06:46:58;;;;;;;;;9.00;8.00;;;;;;;;5055354;28;45536;-67
2022/01/02 06:49:23;;;;;;;;;7.00;7.00;;;;;;;;5056046;28;45319;-65
2022/01/02 06:51:48;;;;;;;;;8.00;8.00;;;;;;;;5037869;28;45621;-65
2022/01/02 06:54:14;;;;;;;;;8.00;7.25;;;;;;;;5037112;28;46391;-65
2022/01/02 06:56:39;;;;;;;;;8.50;8.00;;;;;;;;5055370;28;45375;-65
2022/01/02 06:59:04;;;;;;;;;12.75;11.50;;;;;;;;5056072;28;45487;-66
2022/01/02 07:01:29;;;;;;;;;9.50;8.00;;;;;;;;5037660;28;45436;-66
2022/01/02 07:03:54;;;;;;;;;11.50;9.50;;;;;;;;5036724;28;48561;-65
2022/01/02 07:06:20;;;;;;;;;10.00;9.00;;;;;;;;5037080;28;45518;-66
2022/01/02 07:08:45;;;;;;;;;9.00;9.00;;;;;;;;5055638;28;45402;-66
2022/01/02 07:11:11;;;;;;;;;8.75;8.50;;;;;;;;5037557;28;45461;-67
2022/01/02 07:13:37;;;;;;;;;9.50;6.25;;;;;;;;5055339;28;45862;-67
2022/01/02 07:16:02;;;;;;;;;9.50;9.00;;;;;;;;5037979;28;46300;-69
2022/01/02 07:18:27;;;;;;;;;11.25;10.50;;;;;;;;5055269;28;45446;-68
2022/01/02 07:20:52;;;;;;;;;10.00;10.00;;;;;;;;5037125;28;45578;-69
2022/01/02 07:23:18;;;;;;;;;8.25;7.00;;;;;;;;5036849;28;47216;-67
2022/01/02 07:25:43;;;;;;;;;8.25;8.25;;;;;;;;5054711;28;45472;-66
2022/01/02 07:28:08;;;;;;;;;15.00;10.00;;;;;;;;5055369;28;45995;-67
2022/01/02 07:30:34;;;;;;;;;6.50;6.50;;;;;;;;5036642;28;45505;-65
2022/01/02 07:33:02;;;;;;;;;8.25;8.25;;;;;;;;5054859;28;45719;-68
2022/01/02 07:35:28;;;;;;;;;13.00;11.25;;;;;;;;5036456;28;45440;-66
2022/01/02 07:37:53;;;;;;;;;9.00;8.25;;;;;;;;5036807;28;45865;-67
2022/01/02 07:40:18;;;;;;;;;9.75;8.75;;;;;;;;5055406;28;45454;-65
2022/01/02 07:42:43;;;;;;;;;9.25;7.75;;;;;;;;5036778;28;47989;-65
2022/01/02 07:45:08;;;;;;;;;9.25;9.25;;;;;;;;5054810;28;45439;-66
2022/01/02 07:47:34;;;;;;;;;9.50;9.50;;;;;;;;5055033;28;45487;-65
2022/01/02 07:49:59;;;;;;;;;9.50;8.25;;;;;;;;5055026;28;45449;-65
2022/01/02 07:52:24;;;;;;;;;9.50;7.50;;;;;;;;5054828;28;46624;-65
2022/01/02 07:54:49;;;;;;;;;9.50;8.50;;;;;;;;5054867;28;45442;-66
2022/01/02 07:57:15;;;;;;;;;10.75;9.25;;;;;;;;5054857;28;45147;-65
2022/01/02 07:59:40;;;;;;;;;12.50;12.50;;;;;;;;5054678;28;45512;-65
2022/01/02 08:02:06;;;;;;;;;6.75;5.75;;;;;;;;5037210;28;48612;-65
2022/01/02 08:04:31;;;;;;;;;6.00;6.00;;;;;;;;5036907;28;47872;-65
2022/01/02 08:06:56;;;;;;;;;14.50;13.00;;;;;;;;5037193;28;45378;-64
2022/01/02 08:09:21;;;;;;;;;13.00;11.50;;;;;;;;5054654;28;45525;-64
2022/01/02 08:11:46;;;;;;;;;10.75;10.75;;;;;;;;5054653;28;45657;-65
2022/01/02 08:14:12;;;;;;;;;13.00;13.00;;;;;;;;5053744;28;45345;-65
2022/01/02 08:16:37;;;;;;;;;10.00;8.50;;;;;;;;5035783;28;45522;-64
2022/01/02 08:19:05;;;;;;;;;12.25;11.25;;;;;;;;5055190;28;45470;-64
2022/01/02 08:21:31;;;;;;;;;13.75;11.00;;;;;;;;5054270;28;45652;-65
2022/01/02 08:23:56;;;;;;;;;14.25;11.25;;;;;;;;5053905;28;45434;-65
2022/01/02 08:26:21;;;;;;;;;11.00;9.50;;;;;;;;5054334;28;45554;-65
2022/01/02 08:28:46;;;;;;;;;12.50;12.00;;;;;;;;5054587;28;45443;-65
2022/01/02 08:31:11;;;;;;;;;10.75;10.75;;;;;;;;5054703;28;45615;-64
2022/01/02 08:33:36;;;;;;;;;10.25;10.25;;;;;;;;5054051;28;45761;-65
2022/01/02 08:36:02;;;;;;;;;9.00;7.75;;;;;;;;5054164;28;45303;-68
2022/01/02 08:38:28;;;;;;;;;14.00;11.00;;;;;;;;5035613;28;45429;-67
2022/01/02 08:40:53;;;;;;;;;14.00;10.50;;;;;;;;5053878;28;46037;-67
2022/01/02 08:43:18;;;;;;;;;11.75;7.25;;;;;;;;5054555;28;45867;-67
2022/01/02 08:45:43;;;;;;;;;11.50;11.25;;;;;;;;5054192;28;45475;-66
2022/01/02 08:48:09;;;;;;;;;9.25;7.25;;;;;;;;5035762;28;45791;-66
2022/01/02 08:50:34;;;;;;;;;10.75;10.25;;;;;;;;5035686;28;47608;-67
2022/01/02 08:52:59;;;;;;;;;18.50;14.00;;;;;;;;5035754;28;46398;-68
2022/01/02 08:55:26;;;;;;;;;12.00;11.00;;;;;;;;5054116;28;45290;-67
2022/01/02 08:57:51;;;;;;;;;9.00;9.00;;;;;;;;5053473;28;45537;-65
2022/01/02 09:00:16;;;;;;;;;9.00;8.25;;;;;;;;5034728;28;47525;-66
2022/01/02 09:02:42;;;;;;;;;13.50;11.25;;;;;;;;5053049;28;45353;-64
2022/01/02 09:05:08;;;;;;;;;12.25;11.00;;;;;;;;5053748;28;45382;-65
2022/01/02 09:07:34;;;;;;;;;10.50;9.00;;;;;;;;5035264;28;45406;-64
2022/01/02 09:10:00;;;;;;;;;14.75;13.00;;;;;;;;5035807;28;46104;-66
2022/01/02 09:12:25;;;;;;;;;10.75;9.75;;;;;;;;5035137;28;46314;-65
2022/01/02 09:14:50;;;;;;;;;12.25;11.00;;;;;;;;5053339;28;45444;-66
2022/01/02 09:17:15;;;;;;;;;9.25;9.25;;;;;;;;5035466;28;45510;-66
2022/01/02 09:19:40;;;;;;;;;9.75;9.50;;;;;;;;5035107;28;47736;-66
2022/01/02 09:22:06;;;;;;;;;10.00;10.00;;;;;;;;5035672;28;45474;-64
2022/01/02 09:24:31;;;;;;;;;10.00;9.50;;;;;;;;5053101;28;45354;-65
2022/01/02 09:26:57;;;;;;;;;12.00;12.00;;;;;;;;5034573;28;45506;-66
2022/01/02 09:29:22;;;;;;;;;11.00;10.00;;;;;;;;5053104;28;45496;-66
2022/01/02 09:31:47;;;;;;;;;13.50;11.50;;;;;;;;5035470;28;45457;-65
2022/01/02 09:34:13;;;;;;;;;9.75;9.75;;;;;;;;5053895;28;45729;-67
2022/01/02 09:36:38;;;;;;;;;9.50;9.50;;;;;;;;5053126;28;45580;-65
2022/01/02 09:39:04;;;;;;;;;9.00;8.75;;;;;;;;5034611;28;47749;-68
2022/01/02 09:41:29;;;;;;;;;9.00;8.00;;;;;;;;5053088;28;45589;-67
2022/01/02 09:43:55;;;;;;;;;9.25;9.00;;;;;;;;5053180;28;45514;-68
2022/01/02 09:46:24;;;;;;;;;11.00;10.00;;;;;;;;5052960;28;46216;-67
2022/01/02 09:48:50;;;;;;;;;7.00;7.00;;;;;;;;5049379;28;48598;-68
2022/01/02 09:51:16;;;;;;;;;11.67;9.00;;;;;;;;5052470;28;45545;-66
2022/01/02 09:53:43;;;;;;;;;11.00;9.33;;;;;;;;5034689;28;45417;-68
2022/01/02 09:56:09;;;;;;;;;7.67;7.67;;;;;;;;5052692;28;45358;-69
2022/01/02 09:58:34;;;;;;;;;9.33;9.00;;;;;;;;5034412;28;46642;-67
2022/01/02 10:00:59;;;;;;;;;11.00;8.00;;;;;;;;5035333;28;45434;-67
2022/01/02 10:03:25;;;;;;;;;7.50;7.50;;;;;;;;5034077;28;46876;-69
2022/01/02 10:05:52;;;;;;;;;8.33;8.00;;;;;;;;5033309;28;45794;-68
2022/01/02 10:08:20;;;;;;;;;6.00;4.67;;;;;;;;5034307;28;47765;-67
2022/01/02 10:10:45;;;;;;;;;7.67;6.00;;;;;;;;5034244;28;45564;-68
2022/01/02 10:13:10;;;;;;;;;8.33;7.00;;;;;;;;5035191;28;45359;-69
2022/01/02 10:15:36;;;;;;;;;8.00;7.00;;;;;;;;5052357;28;45544;-68
2022/01/02 10:18:05;;;;;;;;;8.67;7.33;;;;;;;;5052601;28;45949;-72
2022/01/02 10:20:40;;;;;;;;;8.33;5.67;;;;;;;;5052771;28;45441;-74
2022/01/02 10:23:11;;;;;;;;;10.00;7.00;;;;;;;;5052825;28;45523;-77
2022/01/02 10:25:49;;;;;;;;;4.33;4.00;;;;;;;;5041923;28;45609;-78
2022/01/02 10:28:22;;;;;;;;;8.00;6.67;;;;;;;;5040217;28;47681;-72
2022/01/02 10:30:49;;;;;;;;;5.00;3.00;;;;;;;;5056527;28;45391;-75
2022/01/02 10:33:14;;;;;;;;;6.00;6.00;;;;;;;;5049290;28;45402;-74
2022/01/02 10:35:41;;;;;;;;;4.00;4.00;;;;;;;;5033056;28;45386;-71
2022/01/02 10:38:06;;;;;;;;;9.00;4.33;;;;;;;;5046856;28;45636;-76
2022/01/02 10:40:31;;;;;;;;;3.33;2.00;;;;;;;;5035216;28;45885;-74
2022/01/02 10:42:58;;;;;;;;;3.00;3.00;;;;;;;;5038935;28;45926;-78
2022/01/02 10:45:37;;;;;;;;;3.00;3.00;;;;;;;;5033788;28;45497;-76
2022/01/02 10:48:03;;;;;;;;;2.00;2.00;;;;;;;;5037133;28;48391;-74
2022/01/02 10:50:28;;;;;;;;;6.67;4.33;;;;;;;;5054262;28;45406;-75
2022/01/02 10:52:54;;;;;;;;;1.00;0.00;;;;;;;;5034500;28;45556;-75
2022/01/02 10:55:21;;;;;;;;;7.67;4.33;;;;;;;;5048423;28;45534;-73
2022/01/02 10:57:48;;;;;;;;;3.00;2.00;;;;;;;;5033362;28;48587;-73
2022/01/02 11:00:13;;;;;;;;;6.67;4.33;;;;;;;;5050954;28;45573;-74
2022/01/02 11:02:39;;;;;;;;;3.67;3.67;;;;;;;;5036004;28;45348;-77
2022/01/02 11:05:06;;;;;;;;;5.67;5.33;;;;;;;;5045194;28;45353;-74
2022/01/02 11:07:36;;;;;;;;;2.00;2.00;;;;;;;;5055736;28;45369;-74
2022/01/02 11:10:02;;;;;;;;;2.67;2.00;;;;;;;;5051747;28;45419;-72
2022/01/02 11:12:27;;;;;;;;;4.67;4.00;;;;;;;;5034750;28;45568;-72
2022/01/02 11:14:53;;;;;;;;;2.00;2.00;;;;;;;;5047821;28;45513;-71
2022/01/02 11:17:18;;;;;;;;;3.00;2.00;;;;;;;;5035665;28;48507;-70
2022/01/02 11:19:44;;;;;;;;;4.00;4.00;;;;;;;;5054390;28;45906;-71
2022/01/02 11:22:13;;;;;;;;;2.00;2.00;;;;;;;;5037718;28;45662;-71
2022/01/02 11:24:45;;;;;;;;;5.00;3.67;;;;;;;;5036527;28;45525;-71
2022/01/02 11:27:13;;;;;;;;;3.33;2.33;;;;;;;;5036264;28;47697;-70
2022/01/02 11:29:38;;;;;;;;;3.67;3.00;;;;;;;;5054725;28;45793;-70
2022/01/02 11:32:20;;;;;;;;;0.00;0.00;;;;;;;;5035553;28;45599;-72
2022/01/02 11:34:46;;;;;;;;;3.00;3.00;;;;;;;;5054071;28;45629;-72
2022/01/02 11:37:11;;;;;;;;;2.67;2.00;;;;;;;;5036315;28;47517;-73
2022/01/02 11:39:57;;;;;;;;;3.00;3.00;;;;;;;;5036003;28;45194;-73
2022/01/02 11:42:34;;;;;;;;;5.33;3.67;;;;;;;;5054582;28;45627;-72
2022/01/02 11:44:59;;;;;;;;;4.00;3.00;;;;;;;;5054201;28;45437;-74
2022/01/02 11:47:41;;;;;;;;;2.67;2.33;;;;;;;;5066794;28;47882;-76
2022/01/02 11:50:25;;;;;;;;;3.00;3.00;;;;;;;;5054054;28;45499;-76
2022/01/02 11:53:09;;;;;;;;;4.67;3.00;;;;;;;;5061024;28;45389;-76
2022/01/02 11:55:34;;;;;;;;;2.00;2.00;;;;;;;;5032754;28;45734;-76
2022/01/02 11:57:59;;;;;;;;;4.67;3.33;;;;;;;;5054023;28;46497;-76
2022/01/02 12:00:31;;;;;;;;;2.00;2.00;;;;;;;;5033171;28;45382;-75
2022/01/02 12:02:57;;;;;;;;;2.00;2.00;;;;;;;;5048914;28;45433;-72
2022/01/02 12:05:22;;;;;;;;;5.00;3.00;;;;;;;;5035939;28;45446;-76
2022/01/02 12:07:53;;;;;;;;;5.33;3.00;;;;;;;;5036025;28;47831;-77
2022/01/02 12:10:22;;;;;;;;;5.00;3.00;;;;;;;;5051365;28;45394;-78
2022/01/02 12:12:54;;;;;;;;;6.00;3.33;;;;;;;;5054255;28;45578;-77
2022/01/02 12:15:19;;;;;;;;;5.00;4.00;;;;;;;;5037483;28;45398;-76
2022/01/02 12:18:03;;;;;;;;;5.00;3.00;;;;;;;;5055053;28;46409;-76
2022/01/02 12:20:28;;;;;;;;;3.00;2.67;;;;;;;;5055823;28;45459;-78
2022/01/02 12:22:53;;;;;;;;;6.00;3.67;;;;;;;;5037814;28;45577;-69
2022/01/02 12:25:20;;;;;;;;;3.00;3.00;;;;;;;;5038322;28;45421;-79
2022/01/02 12:27:50;;;;;;;;;4.00;3.00;;;;;;;;5073813;28;48466;-80
2022/01/02 12:30:16;;;;;;;;;7.67;3.67;;;;;;;;5035623;28;45485;-76
2022/01/02 12:32:44;;;;;;;;;6.00;5.00;;;;;;;;5037228;28;45445;-78
2022/01/02 12:35:09;;;;;;;;;3.00;3.00;;;;;;;;5036517;28;45577;-71
2022/01/02 12:37:34;;;;;;;;;4.00;4.00;;;;;;;;5052244;28;45688;-73
2022/01/02 12:40:00;;;;;;;;;3.33;3.33;;;;;;;;5035260;28;45653;-72
2022/01/02 12:42:25;;;;;;;;;4.33;4.33;;;;;;;;5054584;28;45428;-73
2022/01/02 12:44:51;;;;;;;;;3.00;3.00;;;;;;;;5035415;28;45591;-70
2022/01/02 12:47:17;;;;;;;;;4.00;4.00;;;;;;;;5037116;28;48327;-77
2022/01/02 12:49:44;;;;;;;;;3.00;3.00;;;;;;;;5041784;28;44825;-76
2022/01/02 12:52:10;;;;;;;;;4.00;4.00;;;;;;;;5057820;28;45626;-69
2022/01/02 12:54:43;;;;;;;;;3.00;3.00;;;;;;;;5037692;28;45550;-73
2022/01/02 12:57:09;;;;;;;;;3.67;3.67;;;;;;;;5033499;28;48366;-70
2022/01/02 12:59:39;;;;;;;;;4.00;3.00;;;;;;;;5033284;28;45599;-72
2022/01/02 13:02:10;;;;;;;;;5.50;4.50;;;;;;;;5033156;28;45405;-73
2022/01/02 13:04:36;;;;;;;;;5.00;3.00;;;;;;;;5048154;28;45331;-72
2022/01/02 13:07:03;;;;;;;;;4.00;4.00;;;;;;;;5050709;28;45500;-72
2022/01/02 13:09:30;;;;;;;;;4.50;4.50;;;;;;;;5054113;28;45405;-74
2022/01/02 13:11:56;;;;;;;;;4.75;4.75;;;;;;;;5069305;28;45561;-76
2022/01/02 13:14:31;;;;;;;;;4.00;4.00;;;;;;;;5053431;28;45501;-77
2022/01/02 13:16:57;;;;;;;;;3.00;3.00;;;;;;;;5031778;28;48692;-75
2022/01/02 13:19:22;;;;;;;;;3.75;3.25;;;;;;;;5037285;28;45334;-74
2022/01/02 13:21:48;;;;;;;;;6.67;4.67;;;;;;;;5055053;28;45503;-72
2022/01/02 13:24:42;;;;;;;;;2.33;2.33;;;;;;;;5054435;28;45443;-74
2022/01/02 13:27:07;;;;;;;;;4.00;3.00;;;;;;;;5031622;28;47742;-73
2022/01/02 13:29:34;;;;;;;;;5.00;5.00;;;;;;;;5051099;28;45441;-73
2022/01/02 13:32:11;;;;;;;;;2.00;2.00;;;;;;;;5042641;28;47007;-74
2022/01/02 13:34:36;;;;;;;;;2.67;2.33;;;;;;;;5048188;28;45506;-75
2022/01/02 13:37:02;;;;;;;;;2.67;2.67;;;;;;;;5036685;28;47357;-74
2022/01/02 13:39:56;;;;;;;;;2.33;2.00;;;;;;;;5048559;28;45519;-72
2022/01/02 13:42:34;;;;;;;;;1.67;1.67;;;;;;;;5021533;28;45453;-73
2022/01/02 13:45:06;;;;;;;;;3.00;3.00;;;;;;;;5064138;27;45563;-73
2022/01/02 13:47:35;;;;;;;;;3.00;3.00;;;;;;;;5049973;28;45502;-72
2022/01/02 13:50:01;;;;;;;;;3.00;3.00;;;;;;;;5036855;28;45310;-76
2022/01/02 13:52:26;;;;;;;;;4.67;2.00;;;;;;;;5039335;28;45474;-74
2022/01/02 13:55:05;;;;;;;;;3.00;1.00;;;;;;;;5032591;28;45576;-74
2022/01/02 13:57:31;;;;;;;;;1.67;1.00;;;;;;;;5031928;28;48642;-72
2022/01/02 13:59:56;;;;;;;;;2.33;2.00;;;;;;;;5055056;28;45480;-73
2022/01/02 14:02:36;;;;;;;;;2.00;1.00;;;;;;;;5068705;28;45560;-73
2022/01/02 14:05:02;;;;;;;;;3.67;3.33;;;;;;;;5042988;28;45475;-73
2022/01/02 14:07:28;;;;;;;;;1.00;1.00;;;;;;;;5051018;28;45491;-74
2022/01/02 14:09:54;;;;;;;;;2.33;1.00;;;;;;;;5053138;28;45508;-73
2022/01/02 14:12:27;;;;;;;;;3.00;2.33;;;;;;;;5039450;28;45541;-74
2022/01/02 14:15:02;;;;;;;;;2.00;2.00;;;;;;;;5030055;28;45740;-72
2022/01/02 14:17:38;;;;;;;;;2.00;2.00;;;;;;;;5035647;28;47600;-72
2022/01/02 14:20:04;;;;;;;;;5.00;3.00;;;;;;;;5033851;28;46241;-72
2022/01/02 14:22:33;;;;;;;;;1.67;1.67;;;;;;;;5040104;28;45483;-74
2022/01/02 14:24:58;;;;;;;;;3.00;2.00;;;;;;;;5039376;28;45500;-73
2022/01/02 14:27:27;;;;;;;;;1.00;1.00;;;;;;;;5033591;28;48705;-72
2022/01/02 14:29:53;;;;;;;;;1.00;1.00;;;;;;;;5054703;28;45486;-75
2022/01/02 14:32:18;;;;;;;;;3.00;2.00;;;;;;;;5054805;27;45889;-74
2022/01/02 14:34:44;;;;;;;;;1.00;1.00;;;;;;;;5057349;28;45448;-72
2022/01/02 14:37:10;;;;;;;;;3.00;3.00;;;;;;;;5060607;28;45992;-74
2022/01/02 14:39:35;;;;;;;;;1.00;1.00;;;;;;;;5051094;28;45526;-73